sensor_id;sensor_type;location;lat;lon;timestamp;temperature;humidity
72106;SHT30;59975;47.646;18.318;2022-09-02T00:02:14;18.37;55.92
72106;SHT30;59975;47.646;18.318;2022-09-02T00:04:43;18.36;53.60
72106;SHT30;59975;47.646;18.318;2022-09-02T00:07:10;18.40;50.40
72106;SHT30;59975;47.646;18.318;2022-09-02T00:09:36;18.50;49.65
72106;SHT30;59975;47.646;18.318;2022-09-02T00:12:03;18.51;50.92
72106;SHT30;59975;47.646;18.318;2022-09-02T00:14:35;18.48;51.82
72106;SHT30;59975;47.646;18.318;2022-09-02T00:17:03;18.47;50.75
72106;SHT30;59975;47.646;18.318;2022-09-02T00:19:30;18.44;50.36
72106;SHT30;59975;47.646;18.318;2022-09-02T00:21:56;18.44;49.43
72106;SHT30;59975;47.646;18.318;2022-09-02T00:24:23;18.41;49.86
72106;SHT30;59975;47.646;18.318;2022-09-02T00:26:49;18.40;50.95
72106;SHT30;59975;47.646;18.318;2022-09-02T00:29:16;18.44;48.59
72106;SHT30;59975;47.646;18.318;2022-09-02T00:31:44;18.51;48.24
72106;SHT30;59975;47.646;18.318;2022-09-02T00:34:10;18.51;48.78
72106;SHT30;59975;47.646;18.318;2022-09-02T00:36:36;18.45;50.26
72106;SHT30;59975;47.646;18.318;2022-09-02T00:39:03;18.38;51.76
72106;SHT30;59975;47.646;18.318;2022-09-02T00:44:53;18.14;51.83
72106;SHT30;59975;47.646;18.318;2022-09-02T00:47:19;18.00;49.70
72106;SHT30;59975;47.646;18.318;2022-09-02T00:49:50;17.87;51.22
72106;SHT30;59975;47.646;18.318;2022-09-02T00:52:22;17.73;51.08
72106;SHT30;59975;47.646;18.318;2022-09-02T00:54:56;17.61;51.41
72106;SHT30;59975;47.646;18.318;2022-09-02T01:00:46;17.46;52.40
72106;SHT30;59975;47.646;18.318;2022-09-02T01:03:17;17.46;51.18
72106;SHT30;59975;47.646;18.318;2022-09-02T01:05:47;17.42;52.18
72106;SHT30;59975;47.646;18.318;2022-09-02T01:08:17;17.43;50.30
72106;SHT30;59975;47.646;18.318;2022-09-02T01:10:47;17.42;50.71
72106;SHT30;59975;47.646;18.318;2022-09-02T01:13:17;17.45;49.20
72106;SHT30;59975;47.646;18.318;2022-09-02T01:15:47;17.52;51.21
72106;SHT30;59975;47.646;18.318;2022-09-02T01:18:22;17.58;49.65
72106;SHT30;59975;47.646;18.318;2022-09-02T01:20:51;17.59;50.91
72106;SHT30;59975;47.646;18.318;2022-09-02T01:23:18;17.49;50.93
72106;SHT30;59975;47.646;18.318;2022-09-02T01:25:46;17.53;50.48
72106;SHT30;59975;47.646;18.318;2022-09-02T01:28:16;17.49;49.72
72106;SHT30;59975;47.646;18.318;2022-09-02T01:30:50;17.49;49.66
72106;SHT30;59975;47.646;18.318;2022-09-02T01:33:17;17.62;49.52
72106;SHT30;59975;47.646;18.318;2022-09-02T01:35:45;17.70;49.19
72106;SHT30;59975;47.646;18.318;2022-09-02T01:38:12;17.82;47.60
72106;SHT30;59975;47.646;18.318;2022-09-02T01:40:38;17.80;47.62
72106;SHT30;59975;47.646;18.318;2022-09-02T01:43:08;17.76;47.49
72106;SHT30;59975;47.646;18.318;2022-09-02T01:45:36;17.70;48.02
72106;SHT30;59975;47.646;18.318;2022-09-02T01:48:03;17.77;48.64
72106;SHT30;59975;47.646;18.318;2022-09-02T01:50:29;17.70;47.97
72106;SHT30;59975;47.646;18.318;2022-09-02T01:52:58;17.66;48.82
72106;SHT30;59975;47.646;18.318;2022-09-02T01:55:26;17.63;48.71
72106;SHT30;59975;47.646;18.318;2022-09-02T01:57:52;17.65;48.18
72106;SHT30;59975;47.646;18.318;2022-09-02T02:00:18;17.63;49.08
72106;SHT30;59975;47.646;18.318;2022-09-02T02:02:43;17.61;48.66
72106;SHT30;59975;47.646;18.318;2022-09-02T02:05:11;17.63;47.76
72106;SHT30;59975;47.646;18.318;2022-09-02T02:07:41;17.66;48.19
72106;SHT30;59975;47.646;18.318;2022-09-02T02:10:08;17.61;50.00
72106;SHT30;59975;47.646;18.318;2022-09-02T02:12:37;17.53;50.88
72106;SHT30;59975;47.646;18.318;2022-09-02T02:15:07;17.45;50.68
72106;SHT30;59975;47.646;18.318;2022-09-02T02:17:34;17.38;51.75
72106;SHT30;59975;47.646;18.318;2022-09-02T02:19:59;17.32;51.90
72106;SHT30;59975;47.646;18.318;2022-09-02T02:22:25;17.22;52.14
72106;SHT30;59975;47.646;18.318;2022-09-02T02:24:52;17.18;52.99
72106;SHT30;59975;47.646;18.318;2022-09-02T02:27:19;17.11;53.51
72106;SHT30;59975;47.646;18.318;2022-09-02T02:29:45;17.14;52.74
72106;SHT30;59975;47.646;18.318;2022-09-02T02:32:13;17.10;55.60
72106;SHT30;59975;47.646;18.318;2022-09-02T02:38:02;16.96;55.00
72106;SHT30;59975;47.646;18.318;2022-09-02T02:40:27;17.10;56.41
72106;SHT30;59975;47.646;18.318;2022-09-02T02:42:54;17.11;55.25
72106;SHT30;59975;47.646;18.318;2022-09-02T02:45:21;17.12;55.45
72106;SHT30;59975;47.646;18.318;2022-09-02T02:47:48;17.18;54.70
72106;SHT30;59975;47.646;18.318;2022-09-02T02:50:16;17.08;55.81
72106;SHT30;59975;47.646;18.318;2022-09-02T02:52:43;17.08;56.45
72106;SHT30;59975;47.646;18.318;2022-09-02T02:55:11;16.96;58.10
72106;SHT30;59975;47.646;18.318;2022-09-02T02:57:38;16.87;58.80
72106;SHT30;59975;47.646;18.318;2022-09-02T03:00:11;16.94;52.80
72106;SHT30;59975;47.646;18.318;2022-09-02T03:02:38;16.96;52.09
72106;SHT30;59975;47.646;18.318;2022-09-02T03:05:06;16.95;51.52
72106;SHT30;59975;47.646;18.318;2022-09-02T03:07:32;16.98;52.05
72106;SHT30;59975;47.646;18.318;2022-09-02T03:10:00;16.94;52.63
72106;SHT30;59975;47.646;18.318;2022-09-02T03:12:25;16.87;53.18
72106;SHT30;59975;47.646;18.318;2022-09-02T03:18:14;16.78;54.07
72106;SHT30;59975;47.646;18.318;2022-09-02T03:20:41;16.74;55.36
72106;SHT30;59975;47.646;18.318;2022-09-02T03:23:09;16.70;55.71
72106;SHT30;59975;47.646;18.318;2022-09-02T03:25:40;16.61;56.97
72106;SHT30;59975;47.646;18.318;2022-09-02T03:28:07;16.57;57.14
72106;SHT30;59975;47.646;18.318;2022-09-02T03:30:33;16.54;58.53
72106;SHT30;59975;47.646;18.318;2022-09-02T03:33:00;16.53;54.88
72106;SHT30;59975;47.646;18.318;2022-09-02T03:35:27;16.54;57.12
72106;SHT30;59975;47.646;18.318;2022-09-02T03:37:53;16.51;58.38
72106;SHT30;59975;47.646;18.318;2022-09-02T03:40:21;16.47;58.41
72106;SHT30;59975;47.646;18.318;2022-09-02T03:42:48;16.41;58.17
72106;SHT30;59975;47.646;18.318;2022-09-02T03:45:15;16.37;58.59
72106;SHT30;59975;47.646;18.318;2022-09-02T03:47:40;16.37;58.67
72106;SHT30;59975;47.646;18.318;2022-09-02T03:50:12;16.36;58.72
72106;SHT30;59975;47.646;18.318;2022-09-02T03:52:38;16.30;58.23
72106;SHT30;59975;47.646;18.318;2022-09-02T03:55:04;16.29;58.72
72106;SHT30;59975;47.646;18.318;2022-09-02T03:57:30;16.24;58.97
72106;SHT30;59975;47.646;18.318;2022-09-02T03:59:57;16.20;58.81
72106;SHT30;59975;47.646;18.318;2022-09-02T04:02:22;16.17;58.18
72106;SHT30;59975;47.646;18.318;2022-09-02T04:04:49;16.14;59.25
72106;SHT30;59975;47.646;18.318;2022-09-02T04:07:16;16.19;57.42
72106;SHT30;59975;47.646;18.318;2022-09-02T04:13:04;15.98;58.12
72106;SHT30;59975;47.646;18.318;2022-09-02T04:15:29;15.89;59.49
72106;SHT30;59975;47.646;18.318;2022-09-02T04:17:55;15.82;60.58
72106;SHT30;59975;47.646;18.318;2022-09-02T04:20:21;15.73;60.15
72106;SHT30;59975;47.646;18.318;2022-09-02T04:22:47;15.72;60.32
72106;SHT30;59975;47.646;18.318;2022-09-02T04:25:13;15.73;58.18
72106;SHT30;59975;47.646;18.318;2022-09-02T04:27:39;15.70;58.52
72106;SHT30;59975;47.646;18.318;2022-09-02T04:30:07;15.78;56.80
72106;SHT30;59975;47.646;18.318;2022-09-02T04:32:35;15.82;55.80
72106;SHT30;59975;47.646;18.318;2022-09-02T04:35:03;15.81;59.54
72106;SHT30;59975;47.646;18.318;2022-09-02T04:37:29;15.73;58.81
72106;SHT30;59975;47.646;18.318;2022-09-02T04:39:55;15.69;57.44
72106;SHT30;59975;47.646;18.318;2022-09-02T04:42:22;15.69;56.95
72106;SHT30;59975;47.646;18.318;2022-09-02T04:44:50;15.68;56.37
72106;SHT30;59975;47.646;18.318;2022-09-02T04:54:02;15.85;56.44
72106;SHT30;59975;47.646;18.318;2022-09-02T04:56:30;15.88;56.61
72106;SHT30;59975;47.646;18.318;2022-09-02T05:02:22;16.03;55.61
72106;SHT30;59975;47.646;18.318;2022-09-02T05:04:49;16.12;55.92
72106;SHT30;59975;47.646;18.318;2022-09-02T05:07:17;16.27;52.74
72106;SHT30;59975;47.646;18.318;2022-09-02T05:09:42;16.33;53.02
72106;SHT30;59975;47.646;18.318;2022-09-02T05:18:54;16.53;53.70
72106;SHT30;59975;47.646;18.318;2022-09-02T05:48:16;16.77;56.19
72106;SHT30;59975;47.646;18.318;2022-09-02T05:51:04;16.89;56.45
72106;SHT30;59975;47.646;18.318;2022-09-02T05:53:35;17.07;55.38
72106;SHT30;59975;47.646;18.318;2022-09-02T05:56:03;17.19;55.80
72106;SHT30;59975;47.646;18.318;2022-09-02T05:58:53;17.32;54.87
72106;SHT30;59975;47.646;18.318;2022-09-02T06:01:40;17.36;56.52
72106;SHT30;59975;47.646;18.318;2022-09-02T06:10:55;17.58;56.06
72106;SHT30;59975;47.646;18.318;2022-09-02T06:13:32;17.61;55.74
72106;SHT30;59975;47.646;18.318;2022-09-02T06:17:42;17.42;55.55
72106;SHT30;59975;47.646;18.318;2022-09-02T06:19:24;17.85;55.35
72106;SHT30;59975;47.646;18.318;2022-09-02T06:21:51;17.90;52.97
72106;SHT30;59975;47.646;18.318;2022-09-02T06:24:21;17.86;53.04
72106;SHT30;59975;47.646;18.318;2022-09-02T06:30:09;18.01;52.19
72106;SHT30;59975;47.646;18.318;2022-09-02T06:32:35;18.03;51.38
72106;SHT30;59975;47.646;18.318;2022-09-02T06:35:02;18.07;51.44
72106;SHT30;59975;47.646;18.318;2022-09-02T06:40:55;18.10;52.44
72106;SHT30;59975;47.646;18.318;2022-09-02T06:43:21;18.06;54.68
72106;SHT30;59975;47.646;18.318;2022-09-02T06:49:39;17.86;56.39
72106;SHT30;59975;47.646;18.318;2022-09-02T07:06:21;17.97;56.44
72106;SHT30;59975;47.646;18.318;2022-09-02T07:12:33;18.26;55.84
72106;SHT30;59975;47.646;18.318;2022-09-02T07:15:23;18.36;56.53
72106;SHT30;59975;47.646;18.318;2022-09-02T07:25:29;18.65;54.01
72106;SHT30;59975;47.646;18.318;2022-09-02T07:31:49;18.74;54.97
72106;SHT30;59975;47.646;18.318;2022-09-02T07:58:12;19.96;51.31
72106;SHT30;59975;47.646;18.318;2022-09-02T08:04:03;20.34;46.38
72106;SHT30;59975;47.646;18.318;2022-09-02T08:06:32;20.34;47.25
72106;SHT30;59975;47.646;18.318;2022-09-02T08:08:59;20.34;47.40
72106;SHT30;59975;47.646;18.318;2022-09-02T08:57:23;20.51;45.68
72106;SHT30;59975;47.646;18.318;2022-09-02T09:03:19;20.52;44.39
72106;SHT30;59975;47.646;18.318;2022-09-02T09:17:53;20.76;45.91
72106;SHT30;59975;47.646;18.318;2022-09-02T09:20:25;20.86;43.73
72106;SHT30;59975;47.646;18.318;2022-09-02T09:22:59;20.90;44.39
72106;SHT30;59975;47.646;18.318;2022-09-02T09:25:27;20.92;42.96
72106;SHT30;59975;47.646;18.318;2022-09-02T09:31:20;20.95;44.61
72106;SHT30;59975;47.646;18.318;2022-09-02T09:34:01;20.90;43.84
72106;SHT30;59975;47.646;18.318;2022-09-02T09:36:52;20.92;44.43
72106;SHT30;59975;47.646;18.318;2022-09-02T09:39:30;21.13;44.32
72106;SHT30;59975;47.646;18.318;2022-09-02T09:42:08;21.18;43.47
72106;SHT30;59975;47.646;18.318;2022-09-02T10:07:09;21.51;40.40
72106;SHT30;59975;47.646;18.318;2022-09-02T10:09:35;21.58;40.95
72106;SHT30;59975;47.646;18.318;2022-09-02T10:14:46;22.18;41.54
72106;SHT30;59975;47.646;18.318;2022-09-02T10:23:49;22.63;40.82
72106;SHT30;59975;47.646;18.318;2022-09-02T10:40:25;23.26;37.46
72106;SHT30;59975;47.646;18.318;2022-09-02T10:43:18;23.37;38.20
72106;SHT30;59975;47.646;18.318;2022-09-02T10:45:49;23.44;37.62
72106;SHT30;59975;47.646;18.318;2022-09-02T10:57:23;23.39;38.80
72106;SHT30;59975;47.646;18.318;2022-09-02T11:22:27;22.63;38.38
72106;SHT30;59975;47.646;18.318;2022-09-02T11:27:35;22.62;34.90
72106;SHT30;59975;47.646;18.318;2022-09-02T11:48:55;22.79;37.48
72106;SHT30;59975;47.646;18.318;2022-09-02T11:54:38;22.60;36.49
72106;SHT30;59975;47.646;18.318;2022-09-02T11:57:05;22.48;37.62
72106;SHT30;59975;47.646;18.318;2022-09-02T12:02:36;22.76;37.35
72106;SHT30;59975;47.646;18.318;2022-09-02T12:18:33;23.39;36.63
72106;SHT30;59975;47.646;18.318;2022-09-02T12:21:11;23.49;36.16
72106;SHT30;59975;47.646;18.318;2022-09-02T12:31:49;23.78;35.44
72106;SHT30;59975;47.646;18.318;2022-09-02T12:36:59;23.98;35.54
72106;SHT30;59975;47.646;18.318;2022-09-02T12:39:47;24.24;35.44
72106;SHT30;59975;47.646;18.318;2022-09-02T12:42:25;24.56;36.36
72106;SHT30;59975;47.646;18.318;2022-09-02T12:45:12;24.90;34.38
72106;SHT30;59975;47.646;18.318;2022-09-02T12:50:51;24.86;32.91
72106;SHT30;59975;47.646;18.318;2022-09-02T12:53:27;24.70;34.74
72106;SHT30;59975;47.646;18.318;2022-09-02T12:56:00;24.65;34.56
72106;SHT30;59975;47.646;18.318;2022-09-02T12:58:32;24.65;35.19
72106;SHT30;59975;47.646;18.318;2022-09-02T13:16:41;24.15;35.81
72106;SHT30;59975;47.646;18.318;2022-09-02T13:31:26;24.75;34.54
72106;SHT30;59975;47.646;18.318;2022-09-02T13:34:03;24.70;36.47
72106;SHT30;59975;47.646;18.318;2022-09-02T13:36:34;24.82;33.75
72106;SHT30;59975;47.646;18.318;2022-09-02T13:39:25;25.14;34.29
72106;SHT30;59975;47.646;18.318;2022-09-02T13:41:52;24.90;32.74
72106;SHT30;59975;47.646;18.318;2022-09-02T13:44:24;24.57;33.67
72106;SHT30;59975;47.646;18.318;2022-09-02T13:47:14;24.43;33.93
72106;SHT30;59975;47.646;18.318;2022-09-02T13:49:41;24.53;33.99
72106;SHT30;59975;47.646;18.318;2022-09-02T13:52:16;24.53;34.22
72106;SHT30;59975;47.646;18.318;2022-09-02T13:54:49;24.24;33.94
72106;SHT30;59975;47.646;18.318;2022-09-02T13:57:21;24.14;34.40
72106;SHT30;59975;47.646;18.318;2022-09-02T13:59:49;24.24;35.12
72106;SHT30;59975;47.646;18.318;2022-09-02T14:02:32;24.18;34.85
72106;SHT30;59975;47.646;18.318;2022-09-02T14:05:00;24.24;33.40
72106;SHT30;59975;47.646;18.318;2022-09-02T14:07:30;24.19;34.15
72106;SHT30;59975;47.646;18.318;2022-09-02T14:09:58;24.24;35.38
72106;SHT30;59975;47.646;18.318;2022-09-02T14:12:25;24.15;36.12
72106;SHT30;59975;47.646;18.318;2022-09-02T14:14:52;24.22;36.66
72106;SHT30;59975;47.646;18.318;2022-09-02T14:17:22;24.32;37.79
72106;SHT30;59975;47.646;18.318;2022-09-02T14:19:49;24.37;38.69
72106;SHT30;59975;47.646;18.318;2022-09-02T14:22:27;24.42;38.58
72106;SHT30;59975;47.646;18.318;2022-09-02T14:24:55;24.30;38.91
72106;SHT30;59975;47.646;18.318;2022-09-02T14:27:22;24.53;38.86
72106;SHT30;59975;47.646;18.318;2022-09-02T14:29:53;24.29;38.89
72106;SHT30;59975;47.646;18.318;2022-09-02T14:32:21;24.29;39.16
72106;SHT30;59975;47.646;18.318;2022-09-02T14:34:48;24.33;40.73
72106;SHT30;59975;47.646;18.318;2022-09-02T14:37:56;24.30;39.92
72106;SHT30;59975;47.646;18.318;2022-09-02T14:40:35;24.21;40.84
72106;SHT30;59975;47.646;18.318;2022-09-02T14:43:09;23.88;40.60
72106;SHT30;59975;47.646;18.318;2022-09-02T14:45:36;23.67;41.42
72106;SHT30;59975;47.646;18.318;2022-09-02T14:48:24;23.62;41.87
72106;SHT30;59975;47.646;18.318;2022-09-02T14:50:59;23.61;42.14
72106;SHT30;59975;47.646;18.318;2022-09-02T14:53:26;23.64;40.91
72106;SHT30;59975;47.646;18.318;2022-09-02T14:55:54;23.70;42.61
72106;SHT30;59975;47.646;18.318;2022-09-02T14:58:23;23.74;43.34
72106;SHT30;59975;47.646;18.318;2022-09-02T15:00:50;23.57;43.46
72106;SHT30;59975;47.646;18.318;2022-09-02T15:03:19;23.46;43.15
72106;SHT30;59975;47.646;18.318;2022-09-02T15:05:45;23.47;43.24
72106;SHT30;59975;47.646;18.318;2022-09-02T15:08:14;23.41;43.31
72106;SHT30;59975;47.646;18.318;2022-09-02T15:10:40;23.39;43.28
72106;SHT30;59975;47.646;18.318;2022-09-02T15:13:08;23.11;43.22
72106;SHT30;59975;47.646;18.318;2022-09-02T15:15:36;23.02;43.53
72106;SHT30;59975;47.646;18.318;2022-09-02T15:18:04;22.92;43.27
72106;SHT30;59975;47.646;18.318;2022-09-02T15:20:31;22.92;43.67
72106;SHT30;59975;47.646;18.318;2022-09-02T15:22:57;22.96;44.01
72106;SHT30;59975;47.646;18.318;2022-09-02T15:25:23;22.95;43.48
72106;SHT30;59975;47.646;18.318;2022-09-02T15:27:49;22.89;44.28
72106;SHT30;59975;47.646;18.318;2022-09-02T15:30:16;22.88;43.62
72106;SHT30;59975;47.646;18.318;2022-09-02T15:32:42;22.83;44.02
72106;SHT30;59975;47.646;18.318;2022-09-02T15:35:09;22.77;44.63
72106;SHT30;59975;47.646;18.318;2022-09-02T15:37:36;22.65;45.16
72106;SHT30;59975;47.646;18.318;2022-09-02T15:40:04;22.42;46.01
72106;SHT30;59975;47.646;18.318;2022-09-02T15:42:34;22.19;47.50
72106;SHT30;59975;47.646;18.318;2022-09-02T15:45:00;22.01;47.24
72106;SHT30;59975;47.646;18.318;2022-09-02T15:47:28;21.83;47.01
72106;SHT30;59975;47.646;18.318;2022-09-02T15:49:55;21.64;47.25
72106;SHT30;59975;47.646;18.318;2022-09-02T15:52:21;21.46;48.02
72106;SHT30;59975;47.646;18.318;2022-09-02T15:54:47;21.34;48.46
72106;SHT30;59975;47.646;18.318;2022-09-02T15:57:13;21.30;48.66
72106;SHT30;59975;47.646;18.318;2022-09-02T15:59:39;21.24;49.25
72106;SHT30;59975;47.646;18.318;2022-09-02T16:02:05;21.22;49.19
72106;SHT30;59975;47.646;18.318;2022-09-02T16:04:32;21.19;49.76
72106;SHT30;59975;47.646;18.318;2022-09-02T16:06:58;21.18;49.17
72106;SHT30;59975;47.646;18.318;2022-09-02T16:09:26;21.10;49.52
72106;SHT30;59975;47.646;18.318;2022-09-02T16:11:53;21.10;49.75
72106;SHT30;59975;47.646;18.318;2022-09-02T16:14:22;21.04;49.15
72106;SHT30;59975;47.646;18.318;2022-09-02T16:16:49;20.99;49.51
72106;SHT30;59975;47.646;18.318;2022-09-02T16:19:15;20.99;49.73
72106;SHT30;59975;47.646;18.318;2022-09-02T16:21:43;20.99;48.87
72106;SHT30;59975;47.646;18.318;2022-09-02T16:24:09;20.93;49.53
72106;SHT30;59975;47.646;18.318;2022-09-02T16:26:36;20.88;49.64
72106;SHT30;59975;47.646;18.318;2022-09-02T16:29:04;20.81;49.77
72106;SHT30;59975;47.646;18.318;2022-09-02T16:31:33;20.75;49.66
72106;SHT30;59975;47.646;18.318;2022-09-02T16:34:04;20.69;50.66
72106;SHT30;59975;47.646;18.318;2022-09-02T16:36:32;20.69;49.81
72106;SHT30;59975;47.646;18.318;2022-09-02T16:39:00;20.61;49.72
72106;SHT30;59975;47.646;18.318;2022-09-02T16:41:37;20.53;50.13
72106;SHT30;59975;47.646;18.318;2022-09-02T16:44:05;20.51;49.66
72106;SHT30;59975;47.646;18.318;2022-09-02T16:46:33;20.51;50.08
72106;SHT30;59975;47.646;18.318;2022-09-02T16:49:00;20.44;50.11
72106;SHT30;59975;47.646;18.318;2022-09-02T16:51:26;20.39;50.44
72106;SHT30;59975;47.646;18.318;2022-09-02T16:54:00;20.34;51.00
72106;SHT30;59975;47.646;18.318;2022-09-02T16:56:27;20.28;51.65
72106;SHT30;59975;47.646;18.318;2022-09-02T16:58:58;20.21;53.14
72106;SHT30;59975;47.646;18.318;2022-09-02T17:01:24;20.16;53.23
72106;SHT30;59975;47.646;18.318;2022-09-02T17:03:50;20.08;53.15
72106;SHT30;59975;47.646;18.318;2022-09-02T17:06:16;19.98;54.05
72106;SHT30;59975;47.646;18.318;2022-09-02T17:08:42;19.93;54.27
72106;SHT30;59975;47.646;18.318;2022-09-02T17:11:23;19.81;54.58
72106;SHT30;59975;47.646;18.318;2022-09-02T17:13:51;19.74;55.63
72106;SHT30;59975;47.646;18.318;2022-09-02T17:16:19;19.66;55.85
72106;SHT30;59975;47.646;18.318;2022-09-02T17:18:44;19.53;56.17
72106;SHT30;59975;47.646;18.318;2022-09-02T17:21:14;19.47;56.64
72106;SHT30;59975;47.646;18.318;2022-09-02T17:23:41;19.45;55.67
72106;SHT30;59975;47.646;18.318;2022-09-02T17:26:08;19.45;53.98
72106;SHT30;59975;47.646;18.318;2022-09-02T17:28:35;19.43;53.35
72106;SHT30;59975;47.646;18.318;2022-09-02T17:31:13;19.45;53.23
72106;SHT30;59975;47.646;18.318;2022-09-02T17:33:39;19.46;51.88
72106;SHT30;59975;47.646;18.318;2022-09-02T17:36:05;19.39;51.93
72106;SHT30;59975;47.646;18.318;2022-09-02T17:38:32;19.27;54.06
72106;SHT30;59975;47.646;18.318;2022-09-02T17:40:58;19.20;53.33
72106;SHT30;59975;47.646;18.318;2022-09-02T17:43:43;19.08;54.54
72106;SHT30;59975;47.646;18.318;2022-09-02T17:46:09;18.99;54.04
72106;SHT30;59975;47.646;18.318;2022-09-02T17:48:35;18.89;55.00
72106;SHT30;59975;47.646;18.318;2022-09-02T17:51:00;18.84;55.73
72106;SHT30;59975;47.646;18.318;2022-09-02T17:53:27;18.69;55.74
72106;SHT30;59975;47.646;18.318;2022-09-02T17:56:17;18.61;55.30
72106;SHT30;59975;47.646;18.318;2022-09-02T17:59:03;18.58;54.57
72106;SHT30;59975;47.646;18.318;2022-09-02T18:01:36;18.57;53.99
72106;SHT30;59975;47.646;18.318;2022-09-02T18:04:49;18.65;54.30
72106;SHT30;59975;47.646;18.318;2022-09-02T18:07:20;18.67;53.55
72106;SHT30;59975;47.646;18.318;2022-09-02T18:09:54;18.67;53.53
72106;SHT30;59975;47.646;18.318;2022-09-02T18:12:19;18.62;55.13
72106;SHT30;59975;47.646;18.318;2022-09-02T18:14:50;18.62;55.47
72106;SHT30;59975;47.646;18.318;2022-09-02T18:17:26;18.57;56.70
72106;SHT30;59975;47.646;18.318;2022-09-02T18:26:04;18.47;59.73
72106;SHT30;59975;47.646;18.318;2022-09-02T18:29:10;18.40;61.59
72106;SHT30;59975;47.646;18.318;2022-09-02T18:44:51;17.61;67.60
72106;SHT30;59975;47.646;18.318;2022-09-02T18:47:26;17.59;68.03
72106;SHT30;59975;47.646;18.318;2022-09-02T18:49:54;17.55;68.34
72106;SHT30;59975;47.646;18.318;2022-09-02T18:52:24;17.48;68.89
72106;SHT30;59975;47.646;18.318;2022-09-02T18:55:00;17.50;69.45
72106;SHT30;59975;47.646;18.318;2022-09-02T18:57:30;17.46;69.84
72106;SHT30;59975;47.646;18.318;2022-09-02T19:00:02;17.49;70.70
72106;SHT30;59975;47.646;18.318;2022-09-02T19:05:15;17.48;71.08
72106;SHT30;59975;47.646;18.318;2022-09-02T19:07:43;17.43;71.53
72106;SHT30;59975;47.646;18.318;2022-09-02T19:10:30;17.43;72.41
72106;SHT30;59975;47.646;18.318;2022-09-02T19:12:58;17.38;73.04
72106;SHT30;59975;47.646;18.318;2022-09-02T19:15:25;17.26;73.14
72106;SHT30;59975;47.646;18.318;2022-09-02T19:17:50;17.24;73.64
72106;SHT30;59975;47.646;18.318;2022-09-02T19:20:17;17.21;74.09
72106;SHT30;59975;47.646;18.318;2022-09-02T19:22:46;17.15;74.09
72106;SHT30;59975;47.646;18.318;2022-09-02T19:25:16;17.21;74.26
72106;SHT30;59975;47.646;18.318;2022-09-02T19:27:44;17.11;74.78
72106;SHT30;59975;47.646;18.318;2022-09-02T19:30:14;17.05;74.89
72106;SHT30;59975;47.646;18.318;2022-09-02T19:32:45;17.03;75.28
72106;SHT30;59975;47.646;18.318;2022-09-02T19:35:15;16.94;75.37
72106;SHT30;59975;47.646;18.318;2022-09-02T19:37:42;16.92;75.75
72106;SHT30;59975;47.646;18.318;2022-09-02T19:40:17;16.91;75.83
72106;SHT30;59975;47.646;18.318;2022-09-02T19:42:44;16.89;75.91
72106;SHT30;59975;47.646;18.318;2022-09-02T19:45:09;16.87;75.89
72106;SHT30;59975;47.646;18.318;2022-09-02T19:47:36;16.87;76.52
72106;SHT30;59975;47.646;18.318;2022-09-02T19:50:03;16.84;76.17
72106;SHT30;59975;47.646;18.318;2022-09-02T19:52:33;16.88;75.70
72106;SHT30;59975;47.646;18.318;2022-09-02T19:54:59;16.88;75.49
72106;SHT30;59975;47.646;18.318;2022-09-02T19:57:27;16.87;75.56
72106;SHT30;59975;47.646;18.318;2022-09-02T19:59:53;16.89;75.29
72106;SHT30;59975;47.646;18.318;2022-09-02T20:02:18;16.89;75.67
72106;SHT30;59975;47.646;18.318;2022-09-02T20:04:44;16.87;75.28
72106;SHT30;59975;47.646;18.318;2022-09-02T20:07:10;16.87;75.56
72106;SHT30;59975;47.646;18.318;2022-09-02T20:09:35;16.83;75.10
72106;SHT30;59975;47.646;18.318;2022-09-02T20:12:03;16.83;75.00
72106;SHT30;59975;47.646;18.318;2022-09-02T20:14:29;16.77;74.76
72106;SHT30;59975;47.646;18.318;2022-09-02T20:17:02;16.77;74.38
72106;SHT30;59975;47.646;18.318;2022-09-02T20:19:30;16.73;74.08
72106;SHT30;59975;47.646;18.318;2022-09-02T20:21:56;16.67;74.14
72106;SHT30;59975;47.646;18.318;2022-09-02T20:24:25;16.61;74.24
72106;SHT30;59975;47.646;18.318;2022-09-02T20:27:15;16.51;74.58
72106;SHT30;59975;47.646;18.318;2022-09-02T20:29:51;16.43;74.77
72106;SHT30;59975;47.646;18.318;2022-09-02T20:35:31;16.24;75.97
72106;SHT30;59975;47.646;18.318;2022-09-02T20:38:47;16.23;76.37
72106;SHT30;59975;47.646;18.318;2022-09-02T20:41:10;16.16;76.65
72106;SHT30;59975;47.646;18.318;2022-09-02T20:43:57;16.08;77.01
72106;SHT30;59975;47.646;18.318;2022-09-02T20:54:59;15.78;78.56
72106;SHT30;59975;47.646;18.318;2022-09-02T21:00:18;15.72;78.70
72106;SHT30;59975;47.646;18.318;2022-09-02T21:02:58;15.69;78.47
72106;SHT30;59975;47.646;18.318;2022-09-02T21:05:33;15.65;78.67
72106;SHT30;59975;47.646;18.318;2022-09-02T21:08:05;15.62;78.51
72106;SHT30;59975;47.646;18.318;2022-09-02T21:10:36;15.58;78.90
72106;SHT30;59975;47.646;18.318;2022-09-02T21:16:12;15.48;79.01
72106;SHT30;59975;47.646;18.318;2022-09-02T21:22:05;15.42;79.53
72106;SHT30;59975;47.646;18.318;2022-09-02T21:24:58;15.34;79.77
72106;SHT30;59975;47.646;18.318;2022-09-02T21:30:36;15.24;79.70
72106;SHT30;59975;47.646;18.318;2022-09-02T21:33:05;15.28;79.52
72106;SHT30;59975;47.646;18.318;2022-09-02T21:35:38;15.25;79.68
72106;SHT30;59975;47.646;18.318;2022-09-02T21:38:13;15.27;79.66
72106;SHT30;59975;47.646;18.318;2022-09-02T21:40:50;15.25;79.74
72106;SHT30;59975;47.646;18.318;2022-09-02T21:43:25;15.25;79.66
72106;SHT30;59975;47.646;18.318;2022-09-02T21:46:09;15.24;79.68
72106;SHT30;59975;47.646;18.318;2022-09-02T21:51:27;15.18;79.47
72106;SHT30;59975;47.646;18.318;2022-09-02T21:56:51;15.12;79.51
72106;SHT30;59975;47.646;18.318;2022-09-02T22:02:06;15.04;79.46
72106;SHT30;59975;47.646;18.318;2022-09-02T22:07:17;14.98;79.60
72106;SHT30;59975;47.646;18.318;2022-09-02T22:09:46;14.93;79.71
72106;SHT30;59975;47.646;18.318;2022-09-02T22:12:16;14.93;79.60
72106;SHT30;59975;47.646;18.318;2022-09-02T22:15:02;14.90;79.82
72106;SHT30;59975;47.646;18.318;2022-09-02T22:20:18;14.87;79.80
72106;SHT30;59975;47.646;18.318;2022-09-02T22:22:52;14.87;79.84
72106;SHT30;59975;47.646;18.318;2022-09-02T22:25:19;14.84;79.89
72106;SHT30;59975;47.646;18.318;2022-09-02T22:27:54;14.83;80.03
72106;SHT30;59975;47.646;18.318;2022-09-02T22:30:21;14.86;79.93
72106;SHT30;59975;47.646;18.318;2022-09-02T22:32:49;14.77;80.22
72106;SHT30;59975;47.646;18.318;2022-09-02T22:38:15;14.67;80.31